Time;durP1;ratioP1;P1;durP2;ratioP2;P2;SDS_P1;SDS_P2;PMS_P1;PMS_P2;Temp;Humidity;BMP_temperature;BMP_pressure;BME280_temperature;BME280_humidity;BME280_pressure;Samples;Min_cycle;Max_cycle;Signal;HPM_P1;HPM_P2
2024/03/26 00:00:29;;;;;;;4.25;3.65;;;;;;;5.60;59.58;96709.84;5048608;28;20044;-73
2024/03/26 00:02:55;;;;;;;4.35;3.30;;;;;;;5.74;59.47;96714.81;5030018;28;20617;-73
2024/03/26 00:05:20;;;;;;;5.82;3.75;;;;;;;5.83;58.86;96710.63;5053127;28;20047;-73
2024/03/26 00:07:45;;;;;;;4.55;3.33;;;;;;;5.71;59.28;96681.41;5035103;28;20083;-73
2024/03/26 00:10:11;;;;;;;3.45;3.15;;;;;;;5.91;59.10;96705.66;5051939;28;20407;-73
2024/03/26 00:12:36;;;;;;;4.07;3.28;;;;;;;5.99;58.25;96696.41;5050613;28;20025;-73
2024/03/26 00:15:02;;;;;;;3.72;3.42;;;;;;;5.88;58.83;96673.31;5046321;28;20036;-73
2024/03/26 00:17:27;;;;;;;4.07;3.10;;;;;;;6.03;57.70;96686.81;5025269;28;20103;-73
2024/03/26 00:19:53;;;;;;;4.82;3.38;;;;;;;5.96;58.60;96662.16;5025970;28;20090;-73
2024/03/26 00:22:18;;;;;;;4.65;3.50;;;;;;;6.01;58.09;96667.56;5040545;28;20480;-74
2024/03/26 00:24:44;;;;;;;7.35;4.00;;;;;;;5.93;57.93;96657.31;5044751;28;20111;-74
2024/03/26 00:27:09;;;;;;;4.25;3.13;;;;;;;5.89;57.77;96672.25;5042757;28;20549;-74
2024/03/26 00:29:34;;;;;;;4.07;3.35;;;;;;;5.93;58.40;96681.38;5026849;28;20037;-74
2024/03/26 00:32:00;;;;;;;5.05;3.53;;;;;;;5.79;57.90;96645.44;5051478;28;20087;-74
2024/03/26 00:34:25;;;;;;;3.53;3.20;;;;;;;5.90;57.71;96671.22;5035253;28;20029;-75
2024/03/26 00:36:50;;;;;;;5.93;3.70;;;;;;;5.89;58.34;96654.38;5034400;28;20819;-75
2024/03/26 00:39:16;;;;;;;4.20;3.38;;;;;;;5.85;57.90;96658.59;5014303;28;20079;-73
2024/03/26 00:41:41;;;;;;;6.45;3.45;;;;;;;5.94;57.50;96662.44;5045975;28;20056;-74
2024/03/26 00:44:07;;;;;;;4.28;3.25;;;;;;;5.91;57.18;96640.75;5032838;28;20040;-74
2024/03/26 00:46:32;;;;;;;4.53;3.20;;;;;;;5.87;58.09;96631.63;5049449;28;20060;-74
2024/03/26 00:48:57;;;;;;;4.57;2.95;;;;;;;5.83;57.01;96627.84;5049840;28;20037;-75
2024/03/26 00:51:23;;;;;;;3.70;2.95;;;;;;;5.75;57.39;96625.59;5060659;28;20020;-75
2024/03/26 00:53:48;;;;;;;4.65;3.30;;;;;;;5.89;57.66;96650.88;5051535;28;20036;-75
2024/03/26 00:56:13;;;;;;;6.07;3.47;;;;;;;5.90;58.25;96644.50;5026564;28;20036;-75
2024/03/26 00:58:39;;;;;;;3.20;2.90;;;;;;;5.61;58.53;96619.84;5018926;28;20044;-74
2024/03/26 01:01:10;;;;;;;3.75;3.38;;;;;;;5.67;58.39;96628.75;5061194;28;20052;-74
2024/03/26 01:03:36;;;;;;;4.05;3.38;;;;;;;5.50;59.12;96628.81;5035776;28;20663;-76
2024/03/26 01:06:02;;;;;;;4.50;3.42;;;;;;;5.46;59.03;96639.19;5038841;28;20025;-75
2024/03/26 01:08:27;;;;;;;3.78;3.38;;;;;;;5.63;58.77;96647.13;5038058;28;20041;-76
2024/03/26 01:10:53;;;;;;;6.15;4.10;;;;;;;5.45;60.61;96650.94;5038944;28;20080;-75
2024/03/26 01:13:18;;;;;;;5.53;3.90;;;;;;;5.24;60.91;96634.94;4993528;28;20149;-75
2024/03/26 01:15:43;;;;;;;6.47;4.00;;;;;;;5.40;61.44;96658.88;5028836;28;20024;-75
2024/03/26 01:18:10;;;;;;;4.80;4.20;;;;;;;5.30;61.58;96655.25;5047197;28;20048;-74
2024/03/26 01:20:35;;;;;;;6.63;4.50;;;;;;;5.23;62.05;96649.31;5027980;28;20036;-74
2024/03/26 01:23:01;;;;;;;4.97;4.45;;;;;;;5.06;62.61;96637.91;5033925;28;20045;-74
2024/03/26 01:25:26;;;;;;;8.57;4.53;;;;;;;5.06;62.31;96633.38;5036947;28;20024;-74
2024/03/26 01:27:56;;;;;;;6.13;4.57;;;;;;;4.98;62.05;96615.13;5045204;28;20071;-75
2024/03/26 01:30:22;;;;;;;6.05;4.75;;;;;;;5.13;62.61;96639.34;5011926;28;20044;-75
2024/03/26 01:32:47;;;;;;;4.97;4.28;;;;;;;5.05;62.06;96631.75;5029186;28;20025;-75
2024/03/26 01:35:13;;;;;;;6.70;4.80;;;;;;;4.99;62.55;96615.94;5030283;28;20038;-74
2024/03/26 01:37:38;;;;;;;6.10;4.70;;;;;;;5.06;62.38;96628.06;5046676;28;20033;-75
2024/03/26 01:40:04;;;;;;;5.60;4.40;;;;;;;5.08;62.83;96636.59;5042165;28;20036;-75
2024/03/26 01:42:30;;;;;;;5.05;4.55;;;;;;;5.05;62.10;96621.09;5043256;28;20056;-75
2024/03/26 01:44:55;;;;;;;5.15;4.13;;;;;;;5.01;62.34;96625.31;5050649;28;20060;-75
2024/03/26 01:47:20;;;;;;;5.07;4.57;;;;;;;4.90;62.49;96592.34;5069285;22;20047;-75
2024/03/26 01:49:46;;;;;;;5.57;4.60;;;;;;;4.97;62.70;96616.16;5076152;28;20534;-74
2024/03/26 01:52:12;;;;;;;6.93;4.50;;;;;;;4.91;62.62;96603.84;5066886;28;20024;-75
2024/03/26 01:54:38;;;;;;;8.07;4.38;;;;;;;4.70;63.10;96564.63;5076947;28;20149;-76
2024/03/26 01:57:03;;;;;;;4.75;4.25;;;;;;;4.86;62.95;96585.09;5088495;28;20016;-77
2024/03/26 01:59:29;;;;;;;4.60;4.13;;;;;;;4.90;62.92;96586.25;5053424;28;20040;-76
2024/03/26 02:01:54;;;;;;;5.05;4.25;;;;;;;4.84;63.24;96584.53;5071327;28;20081;-76
2024/03/26 02:04:20;;;;;;;6.25;4.80;;;;;;;4.81;63.26;96582.38;5091614;28;20024;-74
2024/03/26 02:06:45;;;;;;;7.38;4.80;;;;;;;4.61;63.32;96564.25;5081372;28;20019;-74
2024/03/26 02:09:10;;;;;;;5.30;4.63;;;;;;;4.56;63.51;96552.72;5056848;28;20119;-75
2024/03/26 02:11:38;;;;;;;5.82;4.55;;;;;;;4.63;63.39;96564.00;5073394;28;20028;-74
2024/03/26 02:14:04;;;;;;;5.40;4.80;;;;;;;4.59;63.57;96558.38;5055577;28;20036;-73
2024/03/26 02:16:30;;;;;;;4.95;4.40;;;;;;;4.61;63.14;96560.78;5097316;28;20466;-77
2024/03/26 02:18:55;;;;;;;5.15;4.28;;;;;;;4.58;63.67;96555.94;5047667;28;20050;-77
2024/03/26 02:21:20;;;;;;;6.10;4.55;;;;;;;4.28;63.30;96519.03;5041342;28;20107;-77
2024/03/26 02:23:46;;;;;;;5.53;4.70;;;;;;;4.31;63.37;96539.84;5070799;28;20044;-76
2024/03/26 02:26:18;;;;;;;6.18;4.47;;;;;;;4.38;63.68;96550.34;5064041;28;20123;-76
2024/03/26 02:28:44;;;;;;;6.40;4.40;;;;;;;4.37;63.77;96546.03;5091739;28;20058;-76
2024/03/26 02:31:09;;;;;;;5.70;4.95;;;;;;;4.24;64.22;96533.09;5046004;28;20499;-76
2024/03/26 02:33:34;;;;;;;5.35;4.65;;;;;;;4.14;64.55;96529.22;5067343;28;20036;-76
2024/03/26 02:36:00;;;;;;;5.60;4.35;;;;;;;4.16;64.50;96540.44;5079821;28;20024;-76
2024/03/26 02:38:25;;;;;;;5.47;4.97;;;;;;;4.19;64.42;96536.47;5043691;28;20050;-76
2024/03/26 02:40:51;;;;;;;7.05;4.90;;;;;;;4.06;64.73;96534.97;5048273;28;20039;-76
2024/03/26 02:43:16;;;;;;;6.55;4.97;;;;;;;3.92;64.68;96519.59;5046577;28;20036;-76
2024/03/26 02:45:41;;;;;;;5.07;4.57;;;;;;;3.78;64.88;96519.06;5077076;28;20027;-76
2024/03/26 02:48:07;;;;;;;5.43;4.82;;;;;;;3.81;65.11;96517.78;5059082;28;20032;-76
2024/03/26 02:50:32;;;;;;;6.20;5.00;;;;;;;3.78;65.08;96511.09;5076837;28;20034;-76
2024/03/26 02:52:58;;;;;;;6.75;4.65;;;;;;;3.77;65.49;96509.50;5043514;28;20086;-75
2024/03/26 02:55:23;;;;;;;7.32;5.05;;;;;;;3.69;65.24;96504.56;5056487;28;20063;-74
2024/03/26 02:57:48;;;;;;;5.72;4.78;;;;;;;3.59;65.30;96511.59;5053082;28;20028;-74
2024/03/26 03:00:14;;;;;;;6.78;4.43;;;;;;;3.63;65.82;96516.19;5076514;28;20485;-74
2024/03/26 03:02:40;;;;;;;5.65;4.78;;;;;;;3.63;65.77;96520.69;5055268;28;20073;-74
2024/03/26 03:05:05;;;;;;;7.32;5.20;;;;;;;3.63;65.76;96505.53;5059690;28;20030;-75
2024/03/26 03:07:31;;;;;;;5.45;4.90;;;;;;;3.59;65.70;96499.09;5076270;28;20047;-74
2024/03/26 03:09:56;;;;;;;5.70;4.55;;;;;;;3.62;65.84;96509.25;5057539;28;20028;-75
2024/03/26 03:12:21;;;;;;;6.18;4.00;;;;;;;3.53;65.76;96478.75;5061939;28;20032;-76
2024/03/26 03:14:47;;;;;;;5.35;4.47;;;;;;;3.71;65.30;96510.44;5056126;28;20055;-75
2024/03/26 03:17:12;;;;;;;6.00;4.57;;;;;;;3.73;66.08;96495.06;5076671;28;20036;-76
2024/03/26 03:19:37;;;;;;;4.28;3.75;;;;;;;3.74;65.17;96459.41;5059771;28;20027;-73
2024/03/26 03:22:03;;;;;;;4.55;3.72;;;;;;;4.03;64.68;96484.88;5067794;28;20040;-73
2024/03/26 03:24:28;;;;;;;4.43;3.70;;;;;;;4.14;63.26;96469.81;5056391;28;20416;-73
2024/03/26 03:26:53;;;;;;;5.45;4.00;;;;;;;4.29;62.71;96478.03;5042414;28;20040;-74
2024/03/26 03:29:19;;;;;;;4.78;3.75;;;;;;;4.37;62.95;96474.09;5059366;28;20051;-73
2024/03/26 03:31:44;;;;;;;4.70;4.30;;;;;;;4.43;62.57;96471.28;5062624;28;20036;-74
2024/03/26 03:34:09;;;;;;;6.03;4.15;;;;;;;4.60;62.21;96485.31;5062390;28;20023;-74
2024/03/26 03:36:35;;;;;;;5.35;4.05;;;;;;;4.63;62.20;96484.84;5078123;28;20047;-74
2024/03/26 03:39:00;;;;;;;5.30;3.70;;;;;;;4.61;61.98;96470.16;5075781;28;20024;-73
2024/03/26 03:41:26;;;;;;;5.30;4.03;;;;;;;4.77;61.57;96479.94;5075887;28;20168;-74
2024/03/26 03:43:51;;;;;;;4.45;3.90;;;;;;;4.75;61.13;96472.19;5059043;28;20024;-74
2024/03/26 03:46:16;;;;;;;4.22;3.47;;;;;;;4.83;60.87;96486.94;5075551;28;20044;-74
2024/03/26 03:48:42;;;;;;;3.92;3.53;;;;;;;4.75;60.44;96466.03;5055458;28;20089;-74
2024/03/26 03:51:07;;;;;;;4.25;3.85;;;;;;;4.76;60.79;96457.00;5058965;28;20107;-73
2024/03/26 03:53:32;;;;;;;4.10;3.67;;;;;;;4.89;60.02;96468.06;5075653;28;20380;-75
2024/03/26 03:55:58;;;;;;;4.50;4.10;;;;;;;4.83;59.82;96457.59;5058252;28;20043;-74
2024/03/26 03:58:23;;;;;;;4.00;3.60;;;;;;;4.96;59.89;96467.06;5055473;28;20048;-75
2024/03/26 04:00:49;;;;;;;5.32;4.18;;;;;;;5.01;59.10;96449.25;5058884;28;20478;-75
2024/03/26 04:03:14;;;;;;;4.88;3.65;;;;;;;4.98;58.96;96443.59;5075492;28;20027;-75
2024/03/26 04:05:40;;;;;;;4.43;3.70;;;;;;;5.00;59.35;96430.81;5042234;28;20081;-75
2024/03/26 04:08:06;;;;;;;4.20;3.65;;;;;;;5.05;58.92;96434.34;5050603;28;20032;-74
2024/03/26 04:10:31;;;;;;;4.43;3.75;;;;;;;5.14;58.33;96453.34;5054924;28;20124;-74
2024/03/26 04:12:57;;;;;;;4.05;3.58;;;;;;;5.11;59.25;96438.66;5058941;28;20034;-75
2024/03/26 04:15:23;;;;;;;4.93;3.75;;;;;;;5.04;59.10;96430.06;5074920;28;20479;-74
2024/03/26 04:17:52;;;;;;;5.57;3.97;;;;;;;5.10;58.96;96446.94;5038436;28;20032;-74
2024/03/26 04:20:17;;;;;;;5.05;3.88;;;;;;;4.93;59.49;96431.03;5055265;28;20422;-74
2024/03/26 04:22:47;;;;;;;4.85;3.95;;;;;;;5.03;58.79;96431.13;5066232;28;20034;-75
2024/03/26 04:25:15;;;;;;;4.18;3.78;;;;;;;4.96;59.81;96432.38;5052354;28;20032;-75
2024/03/26 04:27:41;;;;;;;6.63;3.65;;;;;;;4.97;59.06;96440.13;5074772;28;20024;-75
2024/03/26 04:30:08;;;;;;;5.00;4.43;;;;;;;4.94;59.63;96427.31;5058381;28;20055;-75
2024/03/26 04:32:34;;;;;;;4.55;3.97;;;;;;;4.99;59.17;96440.69;5047016;28;20031;-75
2024/03/26 04:35:00;;;;;;;4.60;4.20;;;;;;;4.88;58.69;96423.78;5058107;28;20032;-75
2024/03/26 04:37:25;;;;;;;4.40;3.47;;;;;;;5.00;58.79;96436.97;5058004;28;20038;-76
2024/03/26 04:39:50;;;;;;;5.07;4.15;;;;;;;4.95;59.03;96423.56;5074940;28;20039;-74
2024/03/26 04:42:16;;;;;;;4.18;3.40;;;;;;;4.93;58.97;96419.53;5075112;28;20364;-74
2024/03/26 04:44:41;;;;;;;4.85;3.80;;;;;;;4.93;59.23;96420.34;5059131;28;20032;-74
2024/03/26 04:47:07;;;;;;;3.95;3.55;;;;;;;4.99;59.04;96416.69;5112072;28;20032;-73
2024/03/26 04:49:32;;;;;;;4.57;3.75;;;;;;;5.04;59.39;96430.06;5100797;28;20040;-73
2024/03/26 04:51:58;;;;;;;5.18;4.32;;;;;;;4.96;59.61;96429.72;5075573;28;20024;-73
2024/03/26 04:54:23;;;;;;;5.20;3.95;;;;;;;5.02;59.47;96424.19;5076076;28;20024;-73
2024/03/26 04:56:48;;;;;;;4.68;3.85;;;;;;;5.02;58.97;96423.41;5093546;28;20032;-73
2024/03/26 04:59:14;;;;;;;5.80;4.15;;;;;;;5.02;58.97;96424.19;5077871;28;20039;-73
2024/03/26 05:01:39;;;;;;;5.57;4.15;;;;;;;4.97;58.71;96410.00;5079964;28;20471;-74
2024/03/26 05:04:04;;;;;;;4.70;3.72;;;;;;;5.05;59.26;96429.00;5075976;28;20039;-74
2024/03/26 05:06:30;;;;;;;5.13;4.50;;;;;;;4.89;59.71;96414.75;5075199;28;20032;-74
2024/03/26 05:08:55;;;;;;;6.57;4.18;;;;;;;4.93;58.95;96417.69;5041675;28;20101;-74
2024/03/26 05:11:20;;;;;;;8.40;4.18;;;;;;;4.94;59.58;96431.84;5074972;28;20024;-77
2024/03/26 05:13:46;;;;;;;5.13;4.20;;;;;;;4.94;59.69;96421.97;5077042;28;20032;-75
2024/03/26 05:16:11;;;;;;;5.00;4.30;;;;;;;4.99;59.99;96429.22;5051305;28;20028;-75
2024/03/26 05:18:38;;;;;;;4.95;4.47;;;;;;;5.00;59.27;96442.28;5084154;28;20050;-76
2024/03/26 05:21:03;;;;;;;5.10;4.55;;;;;;;4.77;59.00;96406.06;5041361;28;20026;-74
2024/03/26 05:23:29;;;;;;;5.90;4.20;;;;;;;4.87;59.63;96421.38;5057515;28;20044;-74
2024/03/26 05:25:54;;;;;;;5.50;4.82;;;;;;;4.89;59.60;96429.94;5056895;28;20016;-76
2024/03/26 05:28:19;;;;;;;6.07;3.97;;;;;;;4.77;59.98;96407.94;5074187;28;20035;-76
2024/03/26 05:30:45;;;;;;;6.57;4.38;;;;;;;4.95;60.06;96428.13;5040589;28;20040;-76
2024/03/26 05:33:10;;;;;;;5.07;4.30;;;;;;;4.90;59.87;96415.53;5057333;28;20032;-75
2024/03/26 05:35:36;;;;;;;4.40;4.00;;;;;;;4.84;59.99;96412.00;5053554;28;20123;-75
2024/03/26 05:38:02;;;;;;;5.22;4.25;;;;;;;4.81;60.29;96411.69;5057582;28;20421;-74
2024/03/26 05:40:27;;;;;;;4.43;3.90;;;;;;;4.86;60.34;96414.41;5067436;28;20111;-74
2024/03/26 05:42:53;;;;;;;4.38;3.97;;;;;;;4.84;59.85;96387.19;5091521;28;20040;-74
2024/03/26 05:45:18;;;;;;;6.20;4.13;;;;;;;4.96;60.40;96408.38;5055884;28;20111;-75
2024/03/26 05:47:44;;;;;;;4.47;3.95;;;;;;;5.04;59.71;96415.94;5040292;28;20027;-75
2024/03/26 05:50:09;;;;;;;4.72;4.00;;;;;;;4.96;59.65;96403.03;5092013;28;20028;-76
2024/03/26 05:52:34;;;;;;;4.32;3.92;;;;;;;5.00;60.01;96410.28;5073997;28;20036;-77
2024/03/26 05:55:00;;;;;;;6.78;4.25;;;;;;;4.93;59.59;96384.88;5040295;28;20052;-76
2024/03/26 05:57:25;;;;;;;6.03;4.50;;;;;;;5.03;59.66;96399.13;5057170;28;20040;-77
2024/03/26 05:59:51;;;;;;;4.60;4.00;;;;;;;5.11;59.22;96406.66;5077923;28;20140;-77
2024/03/26 06:02:16;;;;;;;6.75;4.00;;;;;;;5.02;59.94;96375.38;5061021;28;20038;-77
2024/03/26 06:04:42;;;;;;;6.13;3.92;;;;;;;5.14;59.23;96400.81;5045908;28;20020;-77
2024/03/26 06:07:07;;;;;;;4.82;4.22;;;;;;;5.15;59.23;96386.44;5077213;28;20085;-77
2024/03/26 06:09:32;;;;;;;4.30;3.90;;;;;;;5.18;59.30;96385.91;5061112;28;20027;-77
2024/03/26 06:11:59;;;;;;;4.15;3.75;;;;;;;5.39;59.53;96418.91;5053764;28;20732;-77
2024/03/26 06:14:24;;;;;;;4.80;4.00;;;;;;;5.36;59.17;96398.88;5057461;28;20056;-77
2024/03/26 06:16:50;;;;;;;4.88;3.80;;;;;;;5.31;59.88;96385.50;5073883;28;20075;-77
2024/03/26 06:19:17;;;;;;;6.10;4.20;;;;;;;5.36;58.82;96388.19;5061484;28;20471;-76
2024/03/26 06:21:43;;;;;;;6.15;3.90;;;;;;;5.43;59.45;96393.31;5061035;28;20024;-77
2024/03/26 06:24:08;;;;;;;4.88;3.95;;;;;;;5.47;59.42;96387.19;5044033;28;20359;-77
2024/03/26 06:26:34;;;;;;;4.35;3.58;;;;;;;5.51;59.31;96388.28;5060965;28;20071;-77
2024/03/26 06:28:59;;;;;;;4.28;3.88;;;;;;;5.58;58.70;96390.72;5059030;28;20029;-77
2024/03/26 06:31:24;;;;;;;5.88;3.70;;;;;;;5.69;58.41;96396.97;5042959;28;20029;-77
2024/03/26 06:33:50;;;;;;;4.63;3.88;;;;;;;5.73;58.33;96390.84;5044271;28;20659;-76
2024/03/26 06:36:15;;;;;;;4.07;3.70;;;;;;;5.90;57.86;96415.56;5085065;28;20126;-77
2024/03/26 06:38:41;;;;;;;4.43;3.80;;;;;;;5.77;57.95;96383.09;5065848;28;20043;-77
2024/03/26 06:41:06;;;;;;;6.57;4.20;;;;;;;5.96;58.11;96403.03;5095095;28;20156;-77
2024/03/26 06:43:31;;;;;;;4.15;3.58;;;;;;;5.96;58.03;96398.50;5060210;28;20475;-76
2024/03/26 06:45:57;;;;;;;4.40;3.70;;;;;;;5.96;58.39;96397.69;5057922;28;20037;-75
2024/03/26 06:48:22;;;;;;;5.68;3.90;;;;;;;6.05;57.93;96404.13;5064731;28;20031;-77
2024/03/26 06:50:48;;;;;;;4.40;3.83;;;;;;;5.88;57.72;96374.16;5052761;28;20031;-77
2024/03/26 06:53:13;;;;;;;4.70;4.00;;;;;;;6.15;58.78;96417.56;5051912;28;20023;-77
2024/03/26 06:55:38;;;;;;;5.68;3.88;;;;;;;6.14;57.77;96410.59;5043298;28;20044;-77
2024/03/26 06:58:04;;;;;;;4.70;3.95;;;;;;;6.23;58.46;96406.38;5059442;28;20062;-77
2024/03/26 07:00:29;;;;;;;5.88;3.80;;;;;;;6.24;58.27;96399.97;5076649;28;20035;-77
2024/03/26 07:02:57;;;;;;;5.53;4.05;;;;;;;6.43;58.30;96419.81;5057656;28;20028;-77
2024/03/26 07:05:23;;;;;;;5.93;4.10;;;;;;;6.51;57.48;96415.84;5077244;28;20387;-77
2024/03/26 07:07:49;;;;;;;4.53;3.75;;;;;;;6.51;57.95;96405.94;5056449;28;20024;-77
2024/03/26 07:10:14;;;;;;;4.90;3.95;;;;;;;6.47;57.64;96386.16;5058275;28;20459;-77
2024/03/26 07:12:40;;;;;;;4.80;3.60;;;;;;;6.69;57.76;96402.81;5059732;28;20440;-77
2024/03/26 07:15:06;;;;;;;4.85;3.88;;;;;;;6.78;57.54;96403.91;5058614;28;20127;-77
2024/03/26 07:17:31;;;;;;;4.43;3.80;;;;;;;6.83;57.22;96393.22;5039503;28;20112;-77
2024/03/26 07:19:57;;;;;;;4.13;3.78;;;;;;;6.69;56.66;96368.03;5074125;28;20484;-78
2024/03/26 07:22:22;;;;;;;5.13;3.50;;;;;;;6.88;56.51;96379.81;5076356;28;20024;-77
2024/03/26 07:24:48;;;;;;;3.88;3.58;;;;;;;6.98;55.86;96382.50;5059604;28;20054;-77
2024/03/26 07:27:13;;;;;;;4.80;3.33;;;;;;;6.93;56.06;96366.44;5039381;28;20499;-73
2024/03/26 07:29:39;;;;;;;4.80;3.70;;;;;;;7.11;55.77;96385.75;5059414;28;20479;-77
2024/03/26 07:32:05;;;;;;;5.55;3.85;;;;;;;7.08;56.45;96372.88;5075278;28;20028;-77
2024/03/26 07:34:30;;;;;;;4.88;3.50;;;;;;;7.00;55.55;96354.69;5056279;28;20035;-77
2024/03/26 07:36:56;;;;;;;4.05;2.90;;;;;;;7.20;55.88;96370.75;5042189;28;20368;-77
2024/03/26 07:39:21;;;;;;;3.50;3.20;;;;;;;7.16;54.92;96351.75;5060510;28;20032;-77
2024/03/26 07:41:46;;;;;;;5.25;3.30;;;;;;;7.26;55.72;96350.97;5059418;28;20031;-77
2024/03/26 07:44:12;;;;;;;4.38;3.58;;;;;;;7.43;54.78;96354.97;5045137;28;20507;-77
2024/03/26 07:46:37;;;;;;;5.40;3.58;;;;;;;7.35;55.03;96336.75;5050220;28;20023;-78
2024/03/26 07:49:04;;;;;;;5.93;3.20;;;;;;;7.06;54.39;96267.97;5060583;23;20051;-76
2024/03/26 07:51:29;;;;;;;3.70;3.28;;;;;;;7.65;54.58;96346.63;5066395;28;20037;-76
2024/03/26 07:53:54;;;;;;;4.18;3.20;;;;;;;7.67;54.25;96333.75;5053066;28;20094;-76
2024/03/26 07:56:20;;;;;;;3.10;2.80;;;;;;;7.72;54.98;96331.06;5035054;28;20029;-77
2024/03/26 07:58:45;;;;;;;3.63;3.15;;;;;;;7.80;53.27;96317.09;5042099;28;20442;-76
2024/03/26 08:01:10;;;;;;;4.88;3.30;;;;;;;7.77;53.62;96306.91;5055357;28;20027;-76
2024/03/26 08:03:36;;;;;;;5.10;3.38;;;;;;;8.13;53.36;96335.22;5055264;28;20518;-76
2024/03/26 08:06:01;;;;;;;4.35;3.30;;;;;;;8.21;53.76;96345.34;5064850;28;20025;-76
2024/03/26 08:08:27;;;;;;;3.85;3.05;;;;;;;8.21;53.43;96318.53;5061978;28;20108;-76
2024/03/26 08:10:52;;;;;;;5.28;3.10;;;;;;;8.20;53.53;96295.50;5070142;28;20472;-76
2024/03/26 08:13:17;;;;;;;3.63;3.05;;;;;;;8.52;52.78;96324.59;5071089;28;20032;-77
2024/03/26 08:15:43;;;;;;;3.38;3.08;;;;;;;8.43;52.63;96293.25;5055001;28;20477;-77
2024/03/26 08:18:08;;;;;;;3.70;3.22;;;;;;;8.29;52.77;96256.34;5071387;28;20052;-77
2024/03/26 08:20:34;;;;;;;4.28;3.22;;;;;;;8.83;52.55;96319.84;5065889;28;20544;-77
2024/03/26 08:22:59;;;;;;;6.20;3.42;;;;;;;8.91;52.83;96316.59;5053190;28;20036;-76
2024/03/26 08:25:24;;;;;;;3.58;3.15;;;;;;;8.91;51.81;96300.47;5054584;28;20128;-78
2024/03/26 08:27:50;;;;;;;3.70;3.15;;;;;;;9.06;51.81;96308.41;5071580;28;20024;-77
2024/03/26 08:30:16;;;;;;;3.40;2.88;;;;;;;9.07;51.85;96293.09;5071158;28;20480;-77
2024/03/26 08:32:42;;;;;;;3.55;2.88;;;;;;;9.19;51.53;96294.34;5054715;28;20546;-77
2024/03/26 08:35:08;;;;;;;3.80;3.00;;;;;;;9.28;50.61;96281.91;5038479;28;20024;-77
2024/03/26 08:37:35;;;;;;;3.33;3.03;;;;;;;9.32;51.38;96301.72;5050913;28;20033;-77
2024/03/26 08:40:01;;;;;;;3.78;3.20;;;;;;;9.31;51.04;96285.91;5070702;28;20086;-77
2024/03/26 08:42:26;;;;;;;4.72;3.20;;;;;;;9.28;50.92;96251.56;5071201;28;20032;-77
2024/03/26 08:44:52;;;;;;;3.05;2.75;;;;;;;9.37;50.91;96255.22;5054718;28;20051;-77
2024/03/26 08:47:18;;;;;;;3.47;2.75;;;;;;;9.58;51.58;96289.66;5072027;28;20407;-77
2024/03/26 08:49:43;;;;;;;3.85;3.10;;;;;;;9.71;51.59;96286.28;5070814;28;20029;-77
2024/03/26 08:52:08;;;;;;;4.63;3.20;;;;;;;9.82;51.60;96287.00;5071165;28;20037;-77
2024/03/26 08:54:34;;;;;;;4.00;3.60;;;;;;;9.83;51.01;96258.19;5021097;28;20491;-77
2024/03/26 08:56:59;;;;;;;4.78;2.83;;;;;;;10.01;50.82;96260.94;5070729;28;20078;-77
2024/03/26 08:59:25;;;;;;;3.53;3.22;;;;;;;10.16;51.10;96274.22;5054069;28;20052;-77
2024/03/26 09:01:50;;;;;;;4.13;3.13;;;;;;;10.22;50.21;96258.84;5047680;28;20046;-77
2024/03/26 09:04:16;;;;;;;3.75;2.65;;;;;;;10.21;49.66;96249.97;5061981;28;20124;-77
2024/03/26 09:06:41;;;;;;;3.25;2.78;;;;;;;10.33;49.89;96255.72;5058258;28;20376;-77
2024/03/26 09:09:07;;;;;;;3.78;3.10;;;;;;;10.46;49.78;96256.06;5037354;28;20024;-77
2024/03/26 09:11:32;;;;;;;3.40;2.67;;;;;;;10.52;49.76;96250.34;5037411;28;20454;-77
2024/03/26 09:13:57;;;;;;;3.97;2.78;;;;;;;10.66;48.73;96251.22;5035244;28;20033;-77
2024/03/26 09:16:23;;;;;;;4.10;2.90;;;;;;;10.75;48.93;96260.22;5057132;28;20033;-77
2024/03/26 09:18:48;;;;;;;3.75;2.80;;;;;;;10.76;48.58;96248.34;5048064;28;20036;-77
2024/03/26 09:21:14;;;;;;;4.85;3.00;;;;;;;10.80;48.33;96248.56;5059380;28;20531;-76
2024/03/26 09:23:39;;;;;;;4.65;2.95;;;;;;;10.63;47.85;96192.56;5068616;28;20110;-77
2024/03/26 09:26:04;;;;;;;2.95;2.40;;;;;;;10.98;47.69;96243.16;5053724;28;20097;-77
2024/03/26 09:28:30;;;;;;;3.08;2.60;;;;;;;10.94;47.18;96233.25;5070358;28;20032;-76
2024/03/26 09:30:55;;;;;;;4.50;2.63;;;;;;;11.18;47.98;96246.59;5070052;28;20173;-77
2024/03/26 09:33:21;;;;;;;3.90;2.58;;;;;;;11.20;46.93;96239.84;5069927;28;20399;-77
2024/03/26 09:35:46;;;;;;;3.97;2.70;;;;;;;11.21;46.93;96229.84;5054071;28;20127;-77
2024/03/26 09:38:11;;;;;;;4.13;2.65;;;;;;;11.23;47.08;96233.84;5038518;28;20024;-75
2024/03/26 09:40:46;;;;;;;3.40;2.55;;;;;;;11.29;47.27;96226.47;5050963;28;20033;-76
2024/03/26 09:43:13;;;;;;;2.92;2.20;;;;;;;11.34;46.75;96216.38;5043247;28;20044;-75
2024/03/26 09:45:38;;;;;;;3.92;2.83;;;;;;;11.48;47.03;96219.88;5070297;28;20027;-75
2024/03/26 09:48:04;;;;;;;3.88;2.67;;;;;;;11.52;46.68;96212.03;5070037;28;20036;-75
2024/03/26 09:50:33;;;;;;;3.10;2.55;;;;;;;11.65;46.63;96219.31;5070197;28;20101;-75
2024/03/26 09:52:59;;;;;;;3.22;2.40;;;;;;;11.82;46.76;96224.94;5051554;28;20043;-75
2024/03/26 09:55:27;;;;;;;8.70;3.00;;;;;;;12.07;47.02;96221.72;5069940;28;20098;-75
2024/03/26 09:57:53;;;;;;;2.83;2.40;;;;;;;12.19;45.84;96219.31;5066858;28;20068;-76
2024/03/26 10:00:19;;;;;;;4.15;2.80;;;;;;;12.21;45.37;96206.31;5070189;28;20060;-75
2024/03/26 10:02:46;;;;;;;2.97;2.38;;;;;;;12.31;45.62;96208.78;5049794;28;20056;-76
2024/03/26 10:05:16;;;;;;;2.67;2.22;;;;;;;12.39;45.62;96202.66;5053151;28;20019;-75
2024/03/26 10:07:45;;;;;;;3.55;2.53;;;;;;;12.55;46.08;96205.00;5053133;28;20032;-75
2024/03/26 10:10:11;;;;;;;3.60;2.30;;;;;;;12.48;45.61;96190.03;5036816;28;20055;-75
2024/03/26 10:12:40;;;;;;;3.55;2.03;;;;;;;12.46;44.79;96181.44;5058853;28;20052;-75
2024/03/26 10:15:06;;;;;;;3.42;2.13;;;;;;;12.65;44.91;96200.16;5064332;28;20036;-75
2024/03/26 10:17:35;;;;;;;3.80;2.10;;;;;;;12.77;45.29;96213.13;5047521;28;20065;-75
2024/03/26 10:20:01;;;;;;;2.08;1.85;;;;;;;12.86;44.14;96205.91;5066135;28;20033;-75
2024/03/26 10:22:26;;;;;;;2.45;2.22;;;;;;;12.71;43.68;96198.16;5064507;28;20089;-76
2024/03/26 10:24:51;;;;;;;2.80;2.10;;;;;;;12.75;44.41;96199.13;5064592;28;20075;-75
2024/03/26 10:27:17;;;;;;;2.83;2.10;;;;;;;12.78;44.04;96199.31;5066040;28;20033;-76
2024/03/26 10:29:42;;;;;;;2.70;2.30;;;;;;;12.78;43.92;96190.41;5066585;28;20672;-75
2024/03/26 10:32:09;;;;;;;2.28;2.08;;;;;;;12.84;43.96;96200.78;5077233;28;20052;-75
2024/03/26 10:34:35;;;;;;;3.13;2.15;;;;;;;12.83;43.15;96184.91;5050423;28;20028;-75
2024/03/26 10:37:01;;;;;;;3.40;2.08;;;;;;;12.77;43.31;96180.72;5050897;28;20123;-75
2024/03/26 10:39:28;;;;;;;2.90;2.10;;;;;;;12.88;43.14;96192.88;5053195;28;20020;-75
2024/03/26 10:41:54;;;;;;;3.25;2.17;;;;;;;12.91;43.21;96181.44;5055901;28;20037;-76
2024/03/26 10:44:20;;;;;;;2.65;2.05;;;;;;;12.79;42.48;96178.53;5039343;28;20020;-76
2024/03/26 10:46:46;;;;;;;2.22;2.03;;;;;;;12.78;42.75;96156.09;5065461;28;20037;-76
2024/03/26 10:49:13;;;;;;;3.38;2.30;;;;;;;12.75;42.93;96166.72;5057158;28;20029;-76
2024/03/26 10:51:39;;;;;;;3.38;2.45;;;;;;;12.80;43.08;96161.19;5053915;28;20037;-75
2024/03/26 10:54:05;;;;;;;2.45;2.00;;;;;;;12.84;43.27;96156.75;5040332;28;20162;-75
2024/03/26 10:56:32;;;;;;;2.75;2.50;;;;;;;12.92;43.61;96158.72;5056497;28;20044;-75
2024/03/26 10:58:58;;;;;;;2.97;2.42;;;;;;;13.13;43.47;96163.34;5073425;28;20031;-75
2024/03/26 11:01:24;;;;;;;2.30;2.03;;;;;;;13.06;43.33;96152.19;5056930;28;20036;-75
2024/03/26 11:03:50;;;;;;;3.88;2.33;;;;;;;13.17;42.55;96163.50;5053632;28;20132;-75
2024/03/26 11:06:18;;;;;;;2.97;2.00;;;;;;;13.09;42.94;96161.56;5061985;28;20220;-74
2024/03/26 11:08:44;;;;;;;2.25;1.85;;;;;;;13.10;41.98;96144.22;5066962;28;20086;-74
2024/03/26 11:11:13;;;;;;;4.32;2.70;;;;;;;13.28;43.34;96164.81;5037981;28;20040;-75
2024/03/26 11:13:39;;;;;;;3.85;2.53;;;;;;;13.25;43.41;96154.66;5062755;28;20074;-74
2024/03/26 11:16:08;;;;;;;3.42;1.90;;;;;;;13.39;43.04;96158.06;5063446;28;20476;-74
2024/03/26 11:18:39;;;;;;;2.40;2.20;;;;;;;13.46;43.11;96147.59;5054620;28;20020;-76
2024/03/26 11:21:05;;;;;;;2.78;2.22;;;;;;;13.48;42.50;96148.06;5054673;28;20029;-76
2024/03/26 11:23:34;;;;;;;2.50;2.20;;;;;;;13.32;43.83;96125.28;5072600;28;20028;-75
2024/03/26 11:26:00;;;;;;;2.40;2.15;;;;;;;13.56;42.36;96143.81;5053748;28;20048;-76
2024/03/26 11:28:30;;;;;;;2.55;2.17;;;;;;;13.60;42.70;96145.56;5066746;28;20468;-75
2024/03/26 11:30:56;;;;;;;2.25;2.05;;;;;;;13.68;43.27;96133.97;5072561;28;20497;-75